sensor_id;sensor_type;location;lat;lon;timestamp;temperature;humidity
22678;DHT22;26259;50.214;18.620;2023-01-05T00:01:51;7.80;99.90
22678;DHT22;26259;50.214;18.620;2023-01-05T00:04:17;7.80;99.90
22678;DHT22;26259;50.214;18.620;2023-01-05T00:06:43;7.90;99.90
22678;DHT22;26259;50.214;18.620;2023-01-05T00:09:12;7.90;99.90
22678;DHT22;26259;50.214;18.620;2023-01-05T00:11:37;7.90;99.90
22678;DHT22;26259;50.214;18.620;2023-01-05T00:14:25;7.90;99.90
22678;DHT22;26259;50.214;18.620;2023-01-05T00:17:13;8.00;99.90
22678;DHT22;26259;50.214;18.620;2023-01-05T00:19:57;8.10;99.90
22678;DHT22;26259;50.214;18.620;2023-01-05T00:22:52;8.10;99.90
22678;DHT22;26259;50.214;18.620;2023-01-05T00:25:23;8.10;99.90
22678;DHT22;26259;50.214;18.620;2023-01-05T00:27:50;8.20;99.90
22678;DHT22;26259;50.214;18.620;2023-01-05T00:30:18;8.20;99.90
22678;DHT22;26259;50.214;18.620;2023-01-05T00:32:45;8.20;99.90
22678;DHT22;26259;50.214;18.620;2023-01-05T00:35:12;8.30;99.90
22678;DHT22;26259;50.214;18.620;2023-01-05T00:37:39;8.20;99.90
22678;DHT22;26259;50.214;18.620;2023-01-05T00:40:06;8.20;99.90
22678;DHT22;26259;50.214;18.620;2023-01-05T00:42:32;8.30;99.90
22678;DHT22;26259;50.214;18.620;2023-01-05T00:44:58;8.30;99.90
22678;DHT22;26259;50.214;18.620;2023-01-05T00:47:23;8.30;99.90
22678;DHT22;26259;50.214;18.620;2023-01-05T00:49:49;8.30;99.90
22678;DHT22;26259;50.214;18.620;2023-01-05T00:52:15;8.30;99.90
22678;DHT22;26259;50.214;18.620;2023-01-05T00:54:40;8.30;99.90
22678;DHT22;26259;50.214;18.620;2023-01-05T00:57:06;8.30;99.90
22678;DHT22;26259;50.214;18.620;2023-01-05T00:59:32;8.30;99.90
22678;DHT22;26259;50.214;18.620;2023-01-05T01:01:57;8.30;99.90
22678;DHT22;26259;50.214;18.620;2023-01-05T01:04:23;8.40;99.90
22678;DHT22;26259;50.214;18.620;2023-01-05T01:06:49;8.40;99.90
22678;DHT22;26259;50.214;18.620;2023-01-05T01:09:15;8.40;99.90
22678;DHT22;26259;50.214;18.620;2023-01-05T01:11:41;8.40;99.90
22678;DHT22;26259;50.214;18.620;2023-01-05T01:14:07;8.50;99.90
22678;DHT22;26259;50.214;18.620;2023-01-05T01:16:33;8.50;99.90
22678;DHT22;26259;50.214;18.620;2023-01-05T01:18:59;8.60;99.90
22678;DHT22;26259;50.214;18.620;2023-01-05T01:21:25;8.50;99.90
22678;DHT22;26259;50.214;18.620;2023-01-05T01:23:51;8.60;99.90
22678;DHT22;26259;50.214;18.620;2023-01-05T01:26:16;8.50;99.90
22678;DHT22;26259;50.214;18.620;2023-01-05T01:28:45;8.60;99.90
22678;DHT22;26259;50.214;18.620;2023-01-05T01:31:10;8.60;99.90
22678;DHT22;26259;50.214;18.620;2023-01-05T01:33:38;8.60;99.90
22678;DHT22;26259;50.214;18.620;2023-01-05T01:36:05;8.70;99.90
22678;DHT22;26259;50.214;18.620;2023-01-05T01:38:31;8.70;99.90
22678;DHT22;26259;50.214;18.620;2023-01-05T01:40:57;8.80;99.90
22678;DHT22;26259;50.214;18.620;2023-01-05T01:46:13;8.80;99.90
22678;DHT22;26259;50.214;18.620;2023-01-05T01:48:43;8.90;99.90
22678;DHT22;26259;50.214;18.620;2023-01-05T01:51:18;8.90;99.90
22678;DHT22;26259;50.214;18.620;2023-01-05T01:53:50;8.90;99.90
22678;DHT22;26259;50.214;18.620;2023-01-05T01:56:20;9.00;99.90
22678;DHT22;26259;50.214;18.620;2023-01-05T01:58:46;9.00;99.90
22678;DHT22;26259;50.214;18.620;2023-01-05T02:01:12;9.00;99.90
22678;DHT22;26259;50.214;18.620;2023-01-05T02:03:38;9.00;99.90
22678;DHT22;26259;50.214;18.620;2023-01-05T02:06:05;9.10;99.90
22678;DHT22;26259;50.214;18.620;2023-01-05T02:08:30;9.00;99.90
22678;DHT22;26259;50.214;18.620;2023-01-05T02:19:25;9.00;99.90
22678;DHT22;26259;50.214;18.620;2023-01-05T02:38:48;9.00;99.90
22678;DHT22;26259;50.214;18.620;2023-01-05T02:41:37;9.10;99.90
22678;DHT22;26259;50.214;18.620;2023-01-05T02:46:33;9.10;99.90
22678;DHT22;26259;50.214;18.620;2023-01-05T02:49:01;9.10;99.90
22678;DHT22;26259;50.214;18.620;2023-01-05T02:51:36;9.10;99.90
22678;DHT22;26259;50.214;18.620;2023-01-05T02:54:14;9.10;99.90
22678;DHT22;26259;50.214;18.620;2023-01-05T02:56:48;9.10;99.90
22678;DHT22;26259;50.214;18.620;2023-01-05T03:02:12;9.20;99.90
22678;DHT22;26259;50.214;18.620;2023-01-05T03:04:45;9.20;99.90
22678;DHT22;26259;50.214;18.620;2023-01-05T03:07:17;9.30;99.90
22678;DHT22;26259;50.214;18.620;2023-01-05T03:09:47;9.20;99.90
22678;DHT22;26259;50.214;18.620;2023-01-05T03:12:15;9.20;99.90
22678;DHT22;26259;50.214;18.620;2023-01-05T03:15:30;9.30;99.90
22678;DHT22;26259;50.214;18.620;2023-01-05T03:17:59;9.30;99.90
22678;DHT22;26259;50.214;18.620;2023-01-05T03:23:01;9.30;99.90
22678;DHT22;26259;50.214;18.620;2023-01-05T03:25:47;9.30;99.90
22678;DHT22;26259;50.214;18.620;2023-01-05T03:28:58;9.30;99.90
22678;DHT22;26259;50.214;18.620;2023-01-05T03:31:59;9.30;99.90
22678;DHT22;26259;50.214;18.620;2023-01-05T03:34:52;9.30;99.90
22678;DHT22;26259;50.214;18.620;2023-01-05T03:37:41;9.30;99.90
22678;DHT22;26259;50.214;18.620;2023-01-05T03:40:17;9.30;99.90
22678;DHT22;26259;50.214;18.620;2023-01-05T03:42:44;9.30;99.90
22678;DHT22;26259;50.214;18.620;2023-01-05T03:45:11;9.30;99.90
22678;DHT22;26259;50.214;18.620;2023-01-05T03:47:37;9.20;99.90
22678;DHT22;26259;50.214;18.620;2023-01-05T03:50:03;9.20;99.90
22678;DHT22;26259;50.214;18.620;2023-01-05T03:52:29;9.20;99.90
22678;DHT22;26259;50.214;18.620;2023-01-05T03:54:54;9.10;99.90
22678;DHT22;26259;50.214;18.620;2023-01-05T03:57:20;9.10;99.90
22678;DHT22;26259;50.214;18.620;2023-01-05T03:59:45;9.00;99.90
22678;DHT22;26259;50.214;18.620;2023-01-05T04:02:11;9.10;99.90
22678;DHT22;26259;50.214;18.620;2023-01-05T04:04:36;9.00;99.90
22678;DHT22;26259;50.214;18.620;2023-01-05T04:07:02;9.10;99.90
22678;DHT22;26259;50.214;18.620;2023-01-05T04:09:28;9.20;99.90
22678;DHT22;26259;50.214;18.620;2023-01-05T04:11:53;9.10;99.90
22678;DHT22;26259;50.214;18.620;2023-01-05T04:14:19;9.10;99.90
22678;DHT22;26259;50.214;18.620;2023-01-05T04:16:44;9.10;99.90
22678;DHT22;26259;50.214;18.620;2023-01-05T04:19:11;9.10;99.90
22678;DHT22;26259;50.214;18.620;2023-01-05T04:21:36;9.10;99.90
22678;DHT22;26259;50.214;18.620;2023-01-05T04:24:02;9.10;99.90
22678;DHT22;26259;50.214;18.620;2023-01-05T04:26:28;9.10;99.90
22678;DHT22;26259;50.214;18.620;2023-01-05T04:28:53;9.10;99.90
22678;DHT22;26259;50.214;18.620;2023-01-05T04:31:19;9.10;99.90
22678;DHT22;26259;50.214;18.620;2023-01-05T04:33:44;9.20;99.90
22678;DHT22;26259;50.214;18.620;2023-01-05T04:36:10;9.20;99.90
22678;DHT22;26259;50.214;18.620;2023-01-05T04:38:36;9.10;99.90
22678;DHT22;26259;50.214;18.620;2023-01-05T04:41:01;9.10;99.90
22678;DHT22;26259;50.214;18.620;2023-01-05T04:43:27;9.20;99.90
22678;DHT22;26259;50.214;18.620;2023-01-05T04:45:53;9.30;99.90
22678;DHT22;26259;50.214;18.620;2023-01-05T04:48:19;9.30;99.90
22678;DHT22;26259;50.214;18.620;2023-01-05T04:50:44;9.30;99.90
22678;DHT22;26259;50.214;18.620;2023-01-05T04:53:15;9.30;99.90
22678;DHT22;26259;50.214;18.620;2023-01-05T04:55:44;9.30;99.90
22678;DHT22;26259;50.214;18.620;2023-01-05T04:58:09;9.30;99.90
22678;DHT22;26259;50.214;18.620;2023-01-05T05:00:35;9.30;99.90
22678;DHT22;26259;50.214;18.620;2023-01-05T05:03:00;9.40;99.90
22678;DHT22;26259;50.214;18.620;2023-01-05T05:05:26;9.40;99.90
22678;DHT22;26259;50.214;18.620;2023-01-05T05:07:52;9.40;99.90
22678;DHT22;26259;50.214;18.620;2023-01-05T05:10:18;9.40;99.90
22678;DHT22;26259;50.214;18.620;2023-01-05T05:12:43;9.30;99.90
22678;DHT22;26259;50.214;18.620;2023-01-05T05:15:10;9.30;99.90
22678;DHT22;26259;50.214;18.620;2023-01-05T05:17:36;9.30;99.90
22678;DHT22;26259;50.214;18.620;2023-01-05T05:20:01;9.30;99.90
22678;DHT22;26259;50.214;18.620;2023-01-05T05:22:27;9.20;99.90
22678;DHT22;26259;50.214;18.620;2023-01-05T05:24:52;9.20;99.90
22678;DHT22;26259;50.214;18.620;2023-01-05T05:27:18;9.20;99.90
22678;DHT22;26259;50.214;18.620;2023-01-05T05:29:44;9.10;99.90
22678;DHT22;26259;50.214;18.620;2023-01-05T05:32:09;9.10;99.90
22678;DHT22;26259;50.214;18.620;2023-01-05T05:34:35;9.00;99.90
22678;DHT22;26259;50.214;18.620;2023-01-05T05:37:00;9.00;99.90
22678;DHT22;26259;50.214;18.620;2023-01-05T05:39:26;8.90;99.90
22678;DHT22;26259;50.214;18.620;2023-01-05T05:41:51;8.90;99.90
22678;DHT22;26259;50.214;18.620;2023-01-05T05:44:17;8.80;99.90
22678;DHT22;26259;50.214;18.620;2023-01-05T05:46:43;8.80;99.90
22678;DHT22;26259;50.214;18.620;2023-01-05T05:49:08;8.70;99.90
22678;DHT22;26259;50.214;18.620;2023-01-05T05:51:34;8.70;99.90
22678;DHT22;26259;50.214;18.620;2023-01-05T05:53:59;8.70;99.90
22678;DHT22;26259;50.214;18.620;2023-01-05T05:56:25;8.60;99.90
22678;DHT22;26259;50.214;18.620;2023-01-05T05:58:51;8.50;99.90
22678;DHT22;26259;50.214;18.620;2023-01-05T06:01:16;8.50;99.90
22678;DHT22;26259;50.214;18.620;2023-01-05T06:03:42;8.50;99.90
22678;DHT22;26259;50.214;18.620;2023-01-05T06:06:07;8.50;99.90
22678;DHT22;26259;50.214;18.620;2023-01-05T06:08:33;8.50;99.90
22678;DHT22;26259;50.214;18.620;2023-01-05T06:10:59;8.40;99.90
22678;DHT22;26259;50.214;18.620;2023-01-05T06:13:25;8.40;99.90
22678;DHT22;26259;50.214;18.620;2023-01-05T06:15:50;8.40;99.90
22678;DHT22;26259;50.214;18.620;2023-01-05T06:18:16;8.50;99.90
22678;DHT22;26259;50.214;18.620;2023-01-05T06:20:42;8.50;99.90
22678;DHT22;26259;50.214;18.620;2023-01-05T06:23:08;8.50;99.90
22678;DHT22;26259;50.214;18.620;2023-01-05T06:25:34;8.50;99.90
22678;DHT22;26259;50.214;18.620;2023-01-05T06:28:00;8.50;99.90
22678;DHT22;26259;50.214;18.620;2023-01-05T06:30:26;8.50;99.90
22678;DHT22;26259;50.214;18.620;2023-01-05T06:32:52;8.60;99.90
22678;DHT22;26259;50.214;18.620;2023-01-05T06:35:17;8.60;99.90
22678;DHT22;26259;50.214;18.620;2023-01-05T06:37:43;8.60;99.90
22678;DHT22;26259;50.214;18.620;2023-01-05T06:40:09;8.60;99.90
22678;DHT22;26259;50.214;18.620;2023-01-05T06:42:37;8.50;99.90
22678;DHT22;26259;50.214;18.620;2023-01-05T06:45:04;8.50;99.90
22678;DHT22;26259;50.214;18.620;2023-01-05T06:47:29;8.50;99.90
22678;DHT22;26259;50.214;18.620;2023-01-05T06:49:55;8.50;99.90
22678;DHT22;26259;50.214;18.620;2023-01-05T06:52:21;8.50;99.90
22678;DHT22;26259;50.214;18.620;2023-01-05T06:54:47;8.40;99.90
22678;DHT22;26259;50.214;18.620;2023-01-05T06:57:12;8.40;99.90
22678;DHT22;26259;50.214;18.620;2023-01-05T06:59:38;8.30;99.90
22678;DHT22;26259;50.214;18.620;2023-01-05T07:02:04;8.20;99.90
22678;DHT22;26259;50.214;18.620;2023-01-05T07:04:30;8.10;99.90
22678;DHT22;26259;50.214;18.620;2023-01-05T07:06:55;8.00;99.90
22678;DHT22;26259;50.214;18.620;2023-01-05T07:09:21;8.00;99.90
22678;DHT22;26259;50.214;18.620;2023-01-05T07:11:47;7.90;99.90
22678;DHT22;26259;50.214;18.620;2023-01-05T07:14:12;7.80;99.90
22678;DHT22;26259;50.214;18.620;2023-01-05T07:16:38;7.80;99.90
22678;DHT22;26259;50.214;18.620;2023-01-05T07:19:03;7.70;99.90
22678;DHT22;26259;50.214;18.620;2023-01-05T07:21:29;7.70;99.90
22678;DHT22;26259;50.214;18.620;2023-01-05T07:23:55;7.70;99.90
22678;DHT22;26259;50.214;18.620;2023-01-05T07:26:20;7.70;99.90
22678;DHT22;26259;50.214;18.620;2023-01-05T07:28:46;7.60;99.90
22678;DHT22;26259;50.214;18.620;2023-01-05T07:31:11;7.60;99.90
22678;DHT22;26259;50.214;18.620;2023-01-05T07:33:37;7.50;99.90
22678;DHT22;26259;50.214;18.620;2023-01-05T07:36:03;7.50;99.90
22678;DHT22;26259;50.214;18.620;2023-01-05T07:38:30;7.50;99.90
22678;DHT22;26259;50.214;18.620;2023-01-05T07:41:00;7.50;99.90
22678;DHT22;26259;50.214;18.620;2023-01-05T07:43:26;7.50;99.90
22678;DHT22;26259;50.214;18.620;2023-01-05T07:45:59;7.50;99.90
22678;DHT22;26259;50.214;18.620;2023-01-05T07:48:24;7.50;99.90
22678;DHT22;26259;50.214;18.620;2023-01-05T07:50:50;7.50;99.90
22678;DHT22;26259;50.214;18.620;2023-01-05T07:53:16;7.50;99.90
22678;DHT22;26259;50.214;18.620;2023-01-05T07:55:42;7.40;99.90
22678;DHT22;26259;50.214;18.620;2023-01-05T07:58:07;7.40;99.90
22678;DHT22;26259;50.214;18.620;2023-01-05T08:00:33;7.40;99.90
22678;DHT22;26259;50.214;18.620;2023-01-05T08:02:58;7.40;99.90
22678;DHT22;26259;50.214;18.620;2023-01-05T08:05:24;7.40;99.90
22678;DHT22;26259;50.214;18.620;2023-01-05T08:07:54;7.40;99.90
22678;DHT22;26259;50.214;18.620;2023-01-05T08:10:20;7.50;99.90
22678;DHT22;26259;50.214;18.620;2023-01-05T08:12:59;7.50;99.90
22678;DHT22;26259;50.214;18.620;2023-01-05T08:15:43;7.40;99.90
22678;DHT22;26259;50.214;18.620;2023-01-05T08:18:09;7.40;99.90
22678;DHT22;26259;50.214;18.620;2023-01-05T08:20:34;7.40;99.90
22678;DHT22;26259;50.214;18.620;2023-01-05T08:23:00;7.40;99.90
22678;DHT22;26259;50.214;18.620;2023-01-05T08:25:25;7.50;99.90
22678;DHT22;26259;50.214;18.620;2023-01-05T08:27:52;7.50;99.90
22678;DHT22;26259;50.214;18.620;2023-01-05T08:30:18;7.50;99.90
22678;DHT22;26259;50.214;18.620;2023-01-05T08:32:43;7.60;99.90
22678;DHT22;26259;50.214;18.620;2023-01-05T08:35:09;7.60;99.90
22678;DHT22;26259;50.214;18.620;2023-01-05T08:37:35;7.70;99.90
22678;DHT22;26259;50.214;18.620;2023-01-05T08:40:01;7.70;99.90
22678;DHT22;26259;50.214;18.620;2023-01-05T08:42:26;7.80;99.90
22678;DHT22;26259;50.214;18.620;2023-01-05T08:44:52;7.90;99.90
22678;DHT22;26259;50.214;18.620;2023-01-05T08:47:18;8.00;99.90
22678;DHT22;26259;50.214;18.620;2023-01-05T08:49:43;8.00;99.90
22678;DHT22;26259;50.214;18.620;2023-01-05T08:52:09;8.10;99.90
22678;DHT22;26259;50.214;18.620;2023-01-05T08:54:34;8.20;99.90
22678;DHT22;26259;50.214;18.620;2023-01-05T08:57:00;8.10;99.90
22678;DHT22;26259;50.214;18.620;2023-01-05T08:59:26;8.20;99.90
22678;DHT22;26259;50.214;18.620;2023-01-05T09:01:51;8.20;99.90
22678;DHT22;26259;50.214;18.620;2023-01-05T09:04:17;8.20;99.90
22678;DHT22;26259;50.214;18.620;2023-01-05T09:06:43;8.30;99.90
22678;DHT22;26259;50.214;18.620;2023-01-05T09:09:08;8.30;99.90
22678;DHT22;26259;50.214;18.620;2023-01-05T09:11:35;8.40;99.90
22678;DHT22;26259;50.214;18.620;2023-01-05T09:14:01;8.40;99.90
22678;DHT22;26259;50.214;18.620;2023-01-05T09:16:29;8.40;99.90
22678;DHT22;26259;50.214;18.620;2023-01-05T09:18:59;8.40;99.90
22678;DHT22;26259;50.214;18.620;2023-01-05T09:21:27;8.40;99.90
22678;DHT22;26259;50.214;18.620;2023-01-05T09:23:53;8.40;99.90
22678;DHT22;26259;50.214;18.620;2023-01-05T09:26:18;8.40;99.90
22678;DHT22;26259;50.214;18.620;2023-01-05T09:28:44;8.40;99.90
22678;DHT22;26259;50.214;18.620;2023-01-05T09:31:15;8.50;99.90
22678;DHT22;26259;50.214;18.620;2023-01-05T09:33:42;8.60;99.90
22678;DHT22;26259;50.214;18.620;2023-01-05T09:36:09;8.70;99.90
22678;DHT22;26259;50.214;18.620;2023-01-05T09:38:35;8.80;99.90
22678;DHT22;26259;50.214;18.620;2023-01-05T09:43:41;8.90;99.90
22678;DHT22;26259;50.214;18.620;2023-01-05T09:46:15;8.90;99.90
22678;DHT22;26259;50.214;18.620;2023-01-05T09:48:44;9.00;99.90
22678;DHT22;26259;50.214;18.620;2023-01-05T09:51:12;9.00;99.90
22678;DHT22;26259;50.214;18.620;2023-01-05T09:53:38;9.10;99.90
22678;DHT22;26259;50.214;18.620;2023-01-05T09:56:05;9.20;99.90
22678;DHT22;26259;50.214;18.620;2023-01-05T09:58:39;9.30;99.90
22678;DHT22;26259;50.214;18.620;2023-01-05T10:01:15;9.40;99.90
22678;DHT22;26259;50.214;18.620;2023-01-05T10:04:03;9.50;99.90
22678;DHT22;26259;50.214;18.620;2023-01-05T10:06:32;9.60;99.90
22678;DHT22;26259;50.214;18.620;2023-01-05T10:08:59;9.80;99.90
22678;DHT22;26259;50.214;18.620;2023-01-05T10:14:29;10.10;99.90
22678;DHT22;26259;50.214;18.620;2023-01-05T10:16:56;10.30;99.90
22678;DHT22;26259;50.214;18.620;2023-01-05T10:19:22;10.40;99.90
22678;DHT22;26259;50.214;18.620;2023-01-05T10:21:51;10.40;99.90
22678;DHT22;26259;50.214;18.620;2023-01-05T10:29:52;10.70;99.90
22678;DHT22;26259;50.214;18.620;2023-01-05T10:32:49;10.80;99.90
22678;DHT22;26259;50.214;18.620;2023-01-05T10:38:05;10.70;99.90
22678;DHT22;26259;50.214;18.620;2023-01-05T10:40:47;10.60;99.90
22678;DHT22;26259;50.214;18.620;2023-01-05T10:45:45;10.60;99.90
22678;DHT22;26259;50.214;18.620;2023-01-05T10:48:16;10.70;99.90
22678;DHT22;26259;50.214;18.620;2023-01-05T10:50:44;10.70;99.90
22678;DHT22;26259;50.214;18.620;2023-01-05T10:53:14;10.70;99.90
22678;DHT22;26259;50.214;18.620;2023-01-05T10:58:27;10.80;99.90
22678;DHT22;26259;50.214;18.620;2023-01-05T11:00:57;10.90;99.90
22678;DHT22;26259;50.214;18.620;2023-01-05T11:03:28;11.00;99.90
22678;DHT22;26259;50.214;18.620;2023-01-05T11:05:58;11.00;99.90
22678;DHT22;26259;50.214;18.620;2023-01-05T11:08:28;10.90;99.90
22678;DHT22;26259;50.214;18.620;2023-01-05T11:11:05;10.90;99.90
22678;DHT22;26259;50.214;18.620;2023-01-05T11:13:34;11.00;99.90
22678;DHT22;26259;50.214;18.620;2023-01-05T11:16:08;11.10;99.90
22678;DHT22;26259;50.214;18.620;2023-01-05T11:23:38;11.20;99.90
22678;DHT22;26259;50.214;18.620;2023-01-05T11:29:24;11.30;99.90
22678;DHT22;26259;50.214;18.620;2023-01-05T11:32:10;11.50;99.90
22678;DHT22;26259;50.214;18.620;2023-01-05T11:34:45;11.70;99.90
22678;DHT22;26259;50.214;18.620;2023-01-05T11:37:26;11.70;99.90
22678;DHT22;26259;50.214;18.620;2023-01-05T11:40:01;11.80;99.90
22678;DHT22;26259;50.214;18.620;2023-01-05T11:42:34;11.70;99.90
22678;DHT22;26259;50.214;18.620;2023-01-05T11:45:09;11.60;99.90
22678;DHT22;26259;50.214;18.620;2023-01-05T11:47:47;11.50;99.90
22678;DHT22;26259;50.214;18.620;2023-01-05T11:52:47;11.70;99.90
22678;DHT22;26259;50.214;18.620;2023-01-05T11:55:36;11.70;99.90
22678;DHT22;26259;50.214;18.620;2023-01-05T11:58:18;11.70;99.90
22678;DHT22;26259;50.214;18.620;2023-01-05T12:05:54;11.60;99.90
22678;DHT22;26259;50.214;18.620;2023-01-05T12:08:30;11.60;99.90
22678;DHT22;26259;50.214;18.620;2023-01-05T12:11:14;11.60;99.90
22678;DHT22;26259;50.214;18.620;2023-01-05T12:21:51;11.20;99.90
22678;DHT22;26259;50.214;18.620;2023-01-05T12:26:57;11.00;99.90
22678;DHT22;26259;50.214;18.620;2023-01-05T12:32:16;11.00;99.90
22678;DHT22;26259;50.214;18.620;2023-01-05T12:35:07;10.90;99.90
22678;DHT22;26259;50.214;18.620;2023-01-05T12:40:15;10.90;99.90
22678;DHT22;26259;50.214;18.620;2023-01-05T12:48:32;10.90;99.90
22678;DHT22;26259;50.214;18.620;2023-01-05T12:51:21;10.80;99.90
22678;DHT22;26259;50.214;18.620;2023-01-05T12:54:05;10.80;99.90
22678;DHT22;26259;50.214;18.620;2023-01-05T12:56:45;10.70;99.90
22678;DHT22;26259;50.214;18.620;2023-01-05T12:59:37;10.70;99.90
22678;DHT22;26259;50.214;18.620;2023-01-05T13:04:47;10.70;99.90
22678;DHT22;26259;50.214;18.620;2023-01-05T13:07:31;10.60;99.90
22678;DHT22;26259;50.214;18.620;2023-01-05T13:10:18;10.50;99.90
22678;DHT22;26259;50.214;18.620;2023-01-05T13:12:47;10.40;99.90
22678;DHT22;26259;50.214;18.620;2023-01-05T13:18:20;10.20;99.90
22678;DHT22;26259;50.214;18.620;2023-01-05T13:25:54;10.40;99.90
22678;DHT22;26259;50.214;18.620;2023-01-05T13:28:22;10.40;99.90
22678;DHT22;26259;50.214;18.620;2023-01-05T13:36:16;10.30;99.90
22678;DHT22;26259;50.214;18.620;2023-01-05T13:41:24;10.30;99.90
22678;DHT22;26259;50.214;18.620;2023-01-05T13:44:20;10.30;99.90
22678;DHT22;26259;50.214;18.620;2023-01-05T13:54:51;10.40;99.90
22678;DHT22;26259;50.214;18.620;2023-01-05T13:57:22;10.50;99.90
22678;DHT22;26259;50.214;18.620;2023-01-05T13:59:54;10.60;99.90
22678;DHT22;26259;50.214;18.620;2023-01-05T14:02:33;10.60;99.90
22678;DHT22;26259;50.214;18.620;2023-01-05T14:05:00;10.60;99.90
22678;DHT22;26259;50.214;18.620;2023-01-05T14:07:27;10.70;99.90
22678;DHT22;26259;50.214;18.620;2023-01-05T14:09:55;10.60;99.90
22678;DHT22;26259;50.214;18.620;2023-01-05T14:12:41;10.60;99.90
22678;DHT22;26259;50.214;18.620;2023-01-05T14:20:46;10.50;99.90
22678;DHT22;26259;50.214;18.620;2023-01-05T14:25:54;10.40;99.90
22678;DHT22;26259;50.214;18.620;2023-01-05T14:33:57;10.30;99.90
22678;DHT22;26259;50.214;18.620;2023-01-05T14:36:36;10.20;99.90
22678;DHT22;26259;50.214;18.620;2023-01-05T14:41:42;10.10;99.90
22678;DHT22;26259;50.214;18.620;2023-01-05T14:44:28;10.00;99.90
22678;DHT22;26259;50.214;18.620;2023-01-05T14:46:55;9.90;99.90
22678;DHT22;26259;50.214;18.620;2023-01-05T14:49:37;9.70;99.90
22678;DHT22;26259;50.214;18.620;2023-01-05T14:52:09;9.60;99.90
22678;DHT22;26259;50.214;18.620;2023-01-05T15:02:34;9.20;99.90
22678;DHT22;26259;50.214;18.620;2023-01-05T15:05:10;9.10;99.90
22678;DHT22;26259;50.214;18.620;2023-01-05T15:08:14;9.00;99.90
22678;DHT22;26259;50.214;18.620;2023-01-05T15:11:12;9.00;99.90
22678;DHT22;26259;50.214;18.620;2023-01-05T15:28:13;8.60;99.90
22678;DHT22;26259;50.214;18.620;2023-01-05T15:36:37;8.50;99.90
22678;DHT22;26259;50.214;18.620;2023-01-05T15:39:31;8.60;99.90
22678;DHT22;26259;50.214;18.620;2023-01-05T15:42:00;8.60;99.90
22678;DHT22;26259;50.214;18.620;2023-01-05T15:44:33;8.60;99.90
22678;DHT22;26259;50.214;18.620;2023-01-05T15:47:01;8.70;99.90
22678;DHT22;26259;50.214;18.620;2023-01-05T15:49:29;8.70;99.90
22678;DHT22;26259;50.214;18.620;2023-01-05T15:51:56;8.70;99.90
22678;DHT22;26259;50.214;18.620;2023-01-05T15:54:30;8.80;99.90
22678;DHT22;26259;50.214;18.620;2023-01-05T15:57:00;8.80;99.90
22678;DHT22;26259;50.214;18.620;2023-01-05T15:59:39;8.90;99.90
22678;DHT22;26259;50.214;18.620;2023-01-05T16:02:25;9.00;99.90
22678;DHT22;26259;50.214;18.620;2023-01-05T16:05:11;9.00;99.90
22678;DHT22;26259;50.214;18.620;2023-01-05T16:07:53;9.00;99.90
22678;DHT22;26259;50.214;18.620;2023-01-05T16:13:15;8.90;99.90
22678;DHT22;26259;50.214;18.620;2023-01-05T16:15:41;9.00;99.90
22678;DHT22;26259;50.214;18.620;2023-01-05T16:18:16;8.90;99.90
22678;DHT22;26259;50.214;18.620;2023-01-05T16:20:43;8.90;99.90
22678;DHT22;26259;50.214;18.620;2023-01-05T16:23:32;8.90;99.90
22678;DHT22;26259;50.214;18.620;2023-01-05T16:26:00;8.90;99.90
22678;DHT22;26259;50.214;18.620;2023-01-05T16:28:26;8.90;99.90
22678;DHT22;26259;50.214;18.620;2023-01-05T16:30:53;8.90;99.90
22678;DHT22;26259;50.214;18.620;2023-01-05T16:33:33;8.90;99.90
22678;DHT22;26259;50.214;18.620;2023-01-05T16:38:38;8.90;99.90
22678;DHT22;26259;50.214;18.620;2023-01-05T16:41:07;8.90;99.90
22678;DHT22;26259;50.214;18.620;2023-01-05T16:51:09;8.60;99.90
22678;DHT22;26259;50.214;18.620;2023-01-05T16:53:41;8.40;99.90
22678;DHT22;26259;50.214;18.620;2023-01-05T16:56:21;8.10;99.90
22678;DHT22;26259;50.214;18.620;2023-01-05T17:02:45;7.80;99.90
22678;DHT22;26259;50.214;18.620;2023-01-05T17:05:18;7.70;99.90
22678;DHT22;26259;50.214;18.620;2023-01-05T17:07:47;7.70;99.90
22678;DHT22;26259;50.214;18.620;2023-01-05T17:10:20;7.70;99.90
22678;DHT22;26259;50.214;18.620;2023-01-05T17:12:52;7.70;99.90
22678;DHT22;26259;50.214;18.620;2023-01-05T17:15:22;7.80;99.90
22678;DHT22;26259;50.214;18.620;2023-01-05T17:17:49;7.80;99.90
22678;DHT22;26259;50.214;18.620;2023-01-05T17:20:15;7.90;99.90
22678;DHT22;26259;50.214;18.620;2023-01-05T17:22:40;7.90;99.90
22678;DHT22;26259;50.214;18.620;2023-01-05T17:25:11;8.00;99.90
22678;DHT22;26259;50.214;18.620;2023-01-05T17:27:37;8.00;99.90
22678;DHT22;26259;50.214;18.620;2023-01-05T17:30:05;8.10;99.90
22678;DHT22;26259;50.214;18.620;2023-01-05T17:32:36;8.10;99.90
22678;DHT22;26259;50.214;18.620;2023-01-05T17:35:01;8.20;99.90
22678;DHT22;26259;50.214;18.620;2023-01-05T17:37:27;8.30;99.90
22678;DHT22;26259;50.214;18.620;2023-01-05T17:39:52;8.40;99.90
22678;DHT22;26259;50.214;18.620;2023-01-05T17:42:18;8.40;99.90
22678;DHT22;26259;50.214;18.620;2023-01-05T17:45:03;8.40;99.90
22678;DHT22;26259;50.214;18.620;2023-01-05T17:47:28;8.40;99.90
22678;DHT22;26259;50.214;18.620;2023-01-05T17:49:54;8.50;99.90
22678;DHT22;26259;50.214;18.620;2023-01-05T17:52:19;8.50;99.90
22678;DHT22;26259;50.214;18.620;2023-01-05T17:54:45;8.50;99.90
22678;DHT22;26259;50.214;18.620;2023-01-05T17:57:11;8.60;99.90
22678;DHT22;26259;50.214;18.620;2023-01-05T17:59:37;8.60;99.90
22678;DHT22;26259;50.214;18.620;2023-01-05T18:02:03;8.60;99.90
22678;DHT22;26259;50.214;18.620;2023-01-05T18:04:28;8.60;99.90
22678;DHT22;26259;50.214;18.620;2023-01-05T18:06:54;8.60;99.90
22678;DHT22;26259;50.214;18.620;2023-01-05T18:09:19;8.60;99.90
22678;DHT22;26259;50.214;18.620;2023-01-05T18:11:45;8.60;99.90
22678;DHT22;26259;50.214;18.620;2023-01-05T18:14:10;8.60;99.90
22678;DHT22;26259;50.214;18.620;2023-01-05T18:16:36;8.50;99.90
22678;DHT22;26259;50.214;18.620;2023-01-05T18:19:02;8.60;99.90
22678;DHT22;26259;50.214;18.620;2023-01-05T18:21:27;8.50;99.90
22678;DHT22;26259;50.214;18.620;2023-01-05T18:23:53;8.50;99.90
22678;DHT22;26259;50.214;18.620;2023-01-05T18:26:18;8.50;99.90
22678;DHT22;26259;50.214;18.620;2023-01-05T18:28:44;8.60;99.90
22678;DHT22;26259;50.214;18.620;2023-01-05T18:31:11;8.50;99.90
22678;DHT22;26259;50.214;18.620;2023-01-05T18:33:37;8.50;99.90
22678;DHT22;26259;50.214;18.620;2023-01-05T18:36:07;8.50;99.90
22678;DHT22;26259;50.214;18.620;2023-01-05T18:38:33;8.50;99.90
22678;DHT22;26259;50.214;18.620;2023-01-05T18:40:58;8.50;99.90
22678;DHT22;26259;50.214;18.620;2023-01-05T18:43:24;8.50;99.90
22678;DHT22;26259;50.214;18.620;2023-01-05T18:45:53;8.50;99.90